Flight Track Log - Related Links

Times and Time Zones

All times are in EDT time to prevent confusion due to time zone crossing. See the DAL268 flight status page for this flight to view local times or setup timezone preferences in your user account.

Time Position Orientation Groundspeed Altitude Reporting Facility
EDT Latitude Longitude Course Direction KTS MPH feet Rate Location/Type
Wed 02:32:03 PM 37.6130 -122.3770 58° Northeast 115 132  Level FlightAware
Wed 02:32:30 PM 37.6320 -122.3640 28° Northeast 173 199 500 1,355 Climbing FlightAware
Wed 02:32:34 PM 37.6345 -122.3610 44° Northeast 176 203 700 2,143 Climbing FlightAware
Wed 02:32:44 PM 37.6400 -122.3530 49° Northeast 187 215 1,000 1,895 Climbing FlightAware
Wed 02:32:53 PM 37.6452 -122.3450 51° Northeast 199 229 1,300 1,920 Climbing FlightAware
Wed 02:33:09 PM 37.6551 -122.3300 50° Northeast 214 246 1,800 2,063 Climbing FlightAware
Wed 02:33:25 PM 37.6656 -122.3140 50° Northeast 227 261 2,400 2,229 Climbing FlightAware
Wed 02:33:44 PM 37.6786 -122.2930 52° Northeast 249 287 3,100 2,294 Climbing FlightAware
Wed 02:33:59 PM 37.6904 -122.2750 50° Northeast 266 306 3,700 2,757 Climbing FlightAware
Wed 02:34:21 PM 37.7084 -122.2490 49° Northeast 273 314 4,800 2,769 Climbing FlightAware
Wed 02:34:38 PM 37.7231 -122.2290 47° Northeast 282 325 5,500 2,625 Climbing FlightAware
Wed 02:34:53 PM 37.7366 -122.2110 47° Northeast 288 331 6,200 2,710 Climbing FlightAware
Wed 02:35:09 PM 37.7518 -122.1910 46° Northeast 297 342 6,900 2,625 Climbing FlightAware
Wed 02:35:25 PM 37.7673 -122.1700 47° Northeast 300 345 7,600 2,500 Climbing FlightAware
Wed 02:35:33 PM 37.7757 -122.1600 43° Northeast 310 357 7,900 2,348 Climbing FlightAware
Wed 02:35:48 PM 37.7925 -122.1420 40° Northeast 317 365 8,500 2,516 Climbing FlightAware
Wed 02:36:04 PM 37.8105 -122.1240 38° Northeast 319 367 9,200 2,609 Climbing FlightAware
Wed 02:36:34 PM 37.8470 -122.0910 36° Northeast 323 372 10,500 2,000 Climbing FlightAware
Wed 02:37:04 PM 37.8869 -122.0550 35° Northeast 356 410 11,200 1,300 Climbing FlightAware
Wed 02:37:34 PM 37.9300 -122.0160 36° Northeast 392 451 11,800 1,829 Climbing FlightAware
Wed 02:38:26 PM 38.0092 -121.9450 35° Northeast 406 467 13,700 2,082 Climbing FlightAware
Wed 02:39:12 PM 38.0820 -121.8800 35° Northeast 428 493 15,200 2,077 Climbing FlightAware
Wed 02:39:44 PM 38.1330 -121.8340 35° Northeast 435 501 16,400 2,143 Climbing FlightAware
Wed 02:40:22 PM 38.1970 -121.7760 35° Northeast 443 510 17,700 2,057 Climbing FlightAware
Wed 02:40:54 PM 38.2500 -121.7280 35° Northeast 450 518 18,800 1,913 Climbing FlightAware
Wed 02:41:31 PM 38.3130 -121.6700 36° Northeast 457 526 19,900 1,750 Climbing FlightAware
Wed 02:42:06 PM 38.3750 -121.6150 35° Northeast 466 536 20,900 1,652 Climbing FlightAware
Wed 02:42:40 PM 38.4320 -121.5590 38° Northeast 471 542 21,800 1,676 Climbing FlightAware
Wed 02:43:14 PM 38.4820 -121.4860 49° Northeast 471 542 22,800 1,644 Climbing FlightAware
Wed 02:43:53 PM 38.5310 -121.4020 53° Northeast 476 548 23,800 1,457 Climbing FlightAware
Wed 02:44:24 PM 38.5740 -121.3280 53° Northeast 484 557 24,500 1,343 Climbing FlightAware
Wed 02:45:00 PM 38.6230 -121.2440 53° Northeast 492 566 25,300 1,333 Climbing FlightAware
Wed 02:45:36 PM 38.6710 -121.1620 53° Northeast 497 572 26,100 1,333 Climbing FlightAware
Wed 02:46:12 PM 38.7220 -121.0730 54° Northeast 503 579 26,900 1,324 Climbing FlightAware
Wed 02:46:44 PM 38.7660 -120.9970 53° Northeast 509 586 27,600 1,235 Climbing FlightAware
Wed 02:47:20 PM 38.8160 -120.9100 54° Northeast 512 589 28,300 1,583 Climbing FlightAware
Wed 02:47:56 PM 38.8670 -120.8220 53° Northeast 505 581 29,500 1,833 Climbing FlightAware
Wed 02:48:32 PM 38.9180 -120.7340 53° Northeast 504 580 30,500 1,500 Climbing FlightAware
Wed 02:49:04 PM 38.9600 -120.6600 54° Northeast 502 578 31,200 1,412 Climbing FlightAware
Wed 02:49:40 PM 39.0090 -120.5760 53° Northeast 499 574 32,100 1,250 Climbing FlightAware
Wed 02:50:16 PM 39.0570 -120.4920 54° Northeast 502 578 32,700 1,200 Climbing FlightAware
Wed 02:50:50 PM 39.1030 -120.4120 53° Northeast 501 577 33,500 1,286 Climbing FlightAware
Wed 02:51:26 PM 39.1550 -120.3220 53° Northeast 502 578 34,200 1,000 Climbing FlightAware
Wed 02:52:02 PM 39.2040 -120.2350 54° Northeast 504 580 34,700 957 Climbing FlightAware
Wed 02:52:35 PM 39.2480 -120.1580 54° Northeast 504 580 35,300 1,114 Climbing FlightAware
Wed 02:53:12 PM 39.3000 -120.0660 54° Northeast 504 580 36,000 1,099 Climbing FlightAware
Wed 02:53:46 PM 39.3490 -119.9790 54° Northeast 503 579 36,600 909 Climbing FlightAware
Wed 02:54:18 PM 39.3930 -119.9020 54° Northeast 503 579 37,000 343 Climbing FlightAware
Wed 02:54:56 PM 39.4440 -119.8110 54° Northeast 509 586 37,000  Level FlightAware
Wed 02:55:32 PM 39.4950 -119.7210 54° Northeast 514 592 37,000  Level FlightAware
Wed 02:56:04 PM 39.5390 -119.6410 54° Northeast 517 595 37,000  Level FlightAware
Wed 02:56:41 PM 39.5910 -119.5490 54° Northeast 517 595 37,000  Level FlightAware
Wed 02:57:18 PM 39.6430 -119.4560 54° Northeast 518 596 37,000  Level FlightAware
Wed 02:57:50 PM 39.6880 -119.3750 54° Northeast 518 596 37,000  Level FlightAware
Wed 02:58:26 PM 39.7390 -119.2840 54° Northeast 519 597 37,000  Level FlightAware
Wed 02:59:02 PM 39.7890 -119.1920 55° Northeast 518 596 37,000  Level FlightAware
Wed 02:59:34 PM 39.8340 -119.1110 54° Northeast 518 596 37,000  Level FlightAware
Wed 03:00:12 PM 39.8870 -119.0140 55° Northeast 516 594 37,000  Level FlightAware
Wed 03:00:48 PM 39.9360 -118.9250 54° Northeast 516 594 37,000  Level FlightAware
Wed 03:01:20 PM 39.9800 -118.8440 55° Northeast 516 594 37,000  Level FlightAware
Wed 03:01:58 PM 40.0340 -118.7460 54° Northeast 514 592 37,000  Level FlightAware
Wed 03:02:30 PM 40.0760 -118.6670 55° Northeast 513 590 37,000  Level FlightAware
Wed 03:03:02 PM 40.1170 -118.5850 57° Northeast 509 586 37,000  Level FlightAware
Wed 03:03:41 PM 40.1520 -118.4820 66° East 504 580 37,000  Level FlightAware
Wed 03:04:17 PM 40.1820 -118.3730 70° East 504 580 37,000  Level FlightAware
Wed 03:04:52 PM 40.2100 -118.2700 70° East 503 579 37,000  Level FlightAware
Wed 03:05:24 PM 40.2350 -118.1780 70° East 504 580 37,000  Level FlightAware
Wed 03:06:08 PM 40.2690 -118.0540 70° East 504 580 37,000  Level FlightAware
Wed 03:06:40 PM 40.2920 -117.9660 71° East 504 580 37,000  Level FlightAware
Wed 03:07:16 PM 40.3220 -117.8590 70° East 503 579 37,000  Level FlightAware
Wed 03:07:54 PM 40.3510 -117.7500 71° East 503 579 37,000  Level FlightAware
Wed 03:08:35 PM 40.3790 -117.6480 70° East 503 579 37,000  Level FlightAware
Wed 03:09:13 PM 40.4050 -117.5560 70° East 503 579 37,000  Level FlightAware
Wed 03:09:49 PM 40.4290 -117.4680 70° East 503 579 37,000  Level FlightAware
Wed 03:10:25 PM 40.4530 -117.3800 70° East 503 579 37,000  Level FlightAware
Wed 03:11:01 PM 40.4780 -117.2920 69° East 503 579 37,000  Level FlightAware
Wed 03:11:57 PM 40.5150 -117.1550 70° East 503 579 37,000  Level FlightAware
Wed 03:12:33 PM 40.5400 -117.0670 69° East 503 579 37,000  Level FlightAware
Wed 03:13:09 PM 40.5640 -116.9790 70° East 503 579 37,000  Level FlightAware
Wed 03:13:45 PM 40.5880 -116.8910 70° East 503 579 37,000  Level FlightAware
Wed 03:14:22 PM 40.6130 -116.8000 70° East 503 579 37,000  Level FlightAware
Wed 03:14:58 PM 40.6380 -116.7120 69° East 503 579 37,000  Level FlightAware
Wed 03:15:34 PM 40.6620 -116.6240 70° East 503 579 37,000  Level FlightAware
Wed 03:16:10 PM 40.6860 -116.5350 70° East 503 579 37,000  Level FlightAware
Wed 03:16:19 PM 40.7358 -116.3070 74° East 499 574 37,000  Level FlightAware
Wed 03:16:49 PM 40.7591 -116.2190 71° East 501 577 37,000  Level FlightAware
Wed 03:17:22 PM 40.7350 -116.3590 257° West 503 579 37,000  Level FlightAware
Wed 03:17:30 PM 40.7907 -116.1000 74° East 502 578 37,000  Level FlightAware
Wed 03:18:11 PM 40.8220 -115.9820 71° East 504 580 37,000  Level FlightAware
Wed 03:18:53 PM 40.8539 -115.8610 71° East 504 580 37,000  Level FlightAware
Wed 03:21:38 PM 40.9743 -115.3820 71° East 502 578 37,000  Level FlightAware
Wed 03:22:08 PM 40.9930 -115.2930 74° East 500 575 37,000  Level FlightAware
Wed 03:22:38 PM 41.0116 -115.2050 74° East 498 573 37,000  Level FlightAware
Wed 03:22:58 PM 41.0246 -115.1450 74° East 498 573 37,000  Level FlightAware
Wed 03:23:22 PM 41.0412 -115.0770 72° East 500 575 37,000  Level FlightAware
Wed 03:24:12 PM 41.0830 -114.9330 69° East 502 578 37,000  Level FlightAware
Wed 03:24:26 PM 41.0956 -114.8940 67° East 501 577 37,000  Level FlightAware
Wed 03:25:08 PM 41.1317 -114.7730 68° East 503 579 37,000  Level FlightAware
Wed 03:25:38 PM 41.1551 -114.6860 70° East 503 579 37,000  Level FlightAware
Wed 03:26:10 PM 41.1784 -114.5950 71° East 503 579 37,000  Level FlightAware
Wed 03:26:40 PM 41.2006 -114.5060 72° East 503 579 37,000  Level FlightAware
Wed 03:27:10 PM 41.2226 -114.4170 72° East 505 581 37,000  Level FlightAware
Wed 03:27:41 PM 41.2445 -114.3280 72° East 506 582 37,000  Level FlightAware
Wed 03:28:11 PM 41.2665 -114.2380 72° East 507 583 37,000  Level FlightAware
Wed 03:28:53 PM 41.2966 -114.1140 72° East 508 585 37,000  Level FlightAware
Wed 03:29:23 PM 41.3186 -114.0240 72° East 509 586 37,000  Level FlightAware
Wed 03:29:54 PM 41.3404 -113.9340 72° East 509 586 37,000  Level FlightAware
Wed 03:30:21 PM 41.3590 -113.8510 73° East 509 586 37,000  Level FlightAware
Wed 03:30:52 PM 41.3753 -113.7590 77° East 506 582 37,000  Level FlightAware
Wed 03:31:23 PM 41.3900 -113.6640 78° East 507 583 37,000  Level FlightAware
Wed 03:31:55 PM 41.4046 -113.5660 79° East 506 582 37,000  Level FlightAware
Wed 03:32:25 PM 41.4182 -113.4740 79° East 503 579 37,000  Level FlightAware
Wed 03:33:08 PM 41.4371 -113.3450 79° East 500 575 37,000  Level FlightAware
Wed 03:33:38 PM 41.4505 -113.2540 79° East 499 574 37,000  Level FlightAware
Wed 03:34:09 PM 41.4641 -113.1610 79° East 498 573 37,000  Level FlightAware
Wed 03:34:40 PM 41.4774 -113.0690 79° East 498 573 37,000  Level FlightAware
Wed 03:35:15 PM 41.4926 -112.9650 79° East 497 572 37,000  Level FlightAware
Wed 03:35:49 PM 41.5075 -112.8600 79° East 498 573 37,000  Level FlightAware
Wed 03:36:23 PM 41.5220 -112.7590 79° East 498 573 37,000  Level FlightAware
Wed 03:36:54 PM 41.5351 -112.6660 79° East 496 571 37,000  Level FlightAware
Wed 03:37:25 PM 41.5485 -112.5720 79° East 494 568 37,000  Level FlightAware
Wed 03:37:56 PM 41.5614 -112.4790 79° East 494 568 37,000  Level FlightAware
Wed 03:38:31 PM 41.5758 -112.3750 79° East 494 568 37,000  Level FlightAware
Wed 03:39:09 PM 41.5913 -112.2630 79° East 495 570 37,000  Level FlightAware
Wed 03:39:47 PM 41.6071 -112.1480 80° East 496 571 37,000  Level FlightAware
Wed 03:40:18 PM 41.6197 -112.0550 80° East 496 571 37,000  Level FlightAware
Wed 03:41:17 PM 41.6440 -111.8750 80° East 498 573 37,000  Level FlightAware
Wed 03:41:48 PM 41.6564 -111.7820 80° East 497 572 37,000  Level FlightAware
Wed 03:42:31 PM 41.6734 -111.6530 80° East 497 572 37,000  Level FlightAware
Wed 03:43:02 PM 41.6856 -111.5600 80° East 497 572 37,000  Level FlightAware
Wed 03:43:32 PM 41.6974 -111.4700 80° East 497 572 37,000  Level FlightAware
Wed 03:44:02 PM 41.7093 -111.3780 80° East 497 572 37,000  Level FlightAware
Wed 03:44:37 PM 41.7227 -111.2740 80° East 497 572 37,000  Level FlightAware
Wed 03:45:07 PM 41.7345 -111.1820 80° East 498 573 37,000  Level FlightAware
Wed 03:45:43 PM 41.7482 -111.0740 80° East 497 572 37,000  Level FlightAware
Wed 03:46:13 PM 41.7598 -110.9810 80° East 496 571 37,000  Level FlightAware
Wed 03:46:46 PM 41.7723 -110.8820 80° East 497 572 37,000  Level FlightAware
Wed 03:47:21 PM 41.7810 -110.8280 78° East 497 572 37,000  Level FlightAware
Wed 03:47:56 PM 41.7985 -110.6700 81° East 498 573 37,000  Level FlightAware
Wed 03:48:33 PM 41.8050 -110.6420 73° East 497 572 37,000  Level FlightAware
Wed 03:49:09 PM 41.8170 -110.5490 80° East 497 572 37,000  Level FlightAware
Wed 03:49:45 PM 41.8290 -110.4560 80° East 497 572 37,000  Level FlightAware
Wed 03:50:21 PM 41.8420 -110.3630 79° East 497 572 37,000  Level FlightAware
Wed 03:50:58 PM 41.8540 -110.2680 80° East 497 572 37,000  Level FlightAware
Wed 03:51:32 PM 41.8660 -110.1800 80° East 497 572 37,000  Level FlightAware
Wed 03:52:09 PM 41.8780 -110.0840 80° East 497 572 37,000  Level FlightAware
Wed 03:52:43 PM 41.8900 -109.9960 80° East 497 572 37,000  Level FlightAware
Wed 03:53:19 PM 41.9020 -109.9030 80° East 497 572 37,000  Level FlightAware
Wed 03:53:57 PM 41.9150 -109.8050 80° East 497 572 37,000  Level FlightAware
Wed 03:54:33 PM 41.9270 -109.7120 80° East 497 572 37,000  Level FlightAware
Wed 03:55:09 PM 41.9390 -109.6190 80° East 497 572 37,000  Level FlightAware
Wed 03:56:07 PM 41.9722 -109.1789 80° East 502 578 37,000  Level Denver Center
Wed 03:57:09 PM 41.9914 -109.0014 82° East 501 577 37,000  Level Denver Center
Wed 03:58:11 PM 42.0106 -108.8239 82° East 500 575 37,000  Level Denver Center
Wed 03:59:13 PM 42.0322 -108.6172 82° East 499 574 37,000  Level Denver Center
Wed 04:00:15 PM 42.0506 -108.4403 82° East 499 574 37,000  Level Denver Center
Wed 04:01:17 PM 42.0703 -108.2342 83° East 497 572 37,000  Level Denver Center
Wed 04:02:19 PM 42.0869 -108.0569 83° East 498 573 37,000  Level Denver Center
Wed 04:03:21 PM 42.1083 -107.8517 82° East 493 567 37,000  Level Denver Center
Wed 04:04:23 PM 42.1239 -107.6742 83° East 500 575 37,000  Level Denver Center
Wed 04:05:25 PM 42.1444 -107.4686 82° East 496 571 37,000  Level Denver Center
Wed 04:11:22 PM 42.2400 -106.3900 82° East 495 570 37,000  Level FlightAware
Wed 04:11:58 PM 42.2520 -106.2580 83° East 494 568 37,000  Level FlightAware
Wed 04:12:49 PM 42.2640 -106.1150 83° East 495 570 37,000  Level FlightAware
Wed 04:13:40 PM 42.2770 -105.9480 84° East 496 571 37,000  Level FlightAware
Wed 04:14:13 PM 42.2850 -105.8530 83° East 496 571 37,000  Level FlightAware
Wed 04:14:49 PM 42.2940 -105.7580 83° East 496 571 37,000  Level FlightAware
Wed 04:15:25 PM 42.3020 -105.6640 83° East 496 571 37,000  Level FlightAware
Wed 04:16:03 PM 42.3110 -105.5650 83° East 496 571 37,000  Level FlightAware
Wed 04:16:37 PM 42.3190 -105.4010 86° East 497 572 37,000  Level FlightAware
Wed 04:17:15 PM 42.3280 -105.2860 84° East 497 572 37,000  Level FlightAware
Wed 04:18:03 PM 42.3380 -105.1460 84° East 498 573 37,000  Level FlightAware
Wed 04:18:40 PM 42.3460 -105.0480 84° East 498 573 37,000  Level FlightAware
Wed 04:19:15 PM 42.3530 -104.9560 84° East 498 573 37,000  Level FlightAware
Wed 04:19:52 PM 42.3610 -104.8580 84° East 498 573 37,000  Level FlightAware
Wed 04:20:28 PM 42.3680 -104.7630 84° East 498 573 37,000  Level FlightAware
Wed 04:21:06 PM 42.3780 -104.5750 86° East 499 574 37,000  Level FlightAware
Wed 04:21:48 PM 42.3870 -104.4550 84° East 499 574 37,000  Level FlightAware
Wed 04:22:24 PM 42.3940 -104.3590 84° East 499 574 37,000  Level FlightAware
Wed 04:23:00 PM 42.4020 -104.2640 83° East 499 574 37,000  Level FlightAware
Wed 04:23:34 PM 42.4090 -104.1740 84° East 499 574 37,000  Level FlightAware
Wed 04:24:08 PM 42.4160 -104.0850 84° East 499 574 37,000  Level FlightAware
Wed 04:24:44 PM 42.4230 -103.9890 84° East 499 574 37,000  Level FlightAware
Wed 04:25:20 PM 42.4300 -103.8940 84° East 499 574 37,000  Level FlightAware
Wed 04:25:58 PM 42.4380 -103.7940 84° East 499 574 37,000  Level FlightAware
Wed 04:26:34 PM 42.4460 -103.6990 83° East 499 574 37,000  Level FlightAware
Wed 04:27:10 PM 42.4530 -103.6030 84° East 499 574 37,000  Level FlightAware
Wed 04:27:46 PM 42.4600 -103.5080 84° East 499 574 37,000  Level FlightAware
Wed 04:28:22 PM 42.4680 -103.4130 83° East 499 574 37,000  Level FlightAware
Wed 04:28:59 PM 42.4750 -103.3150 84° East 499 574 37,000  Level FlightAware
Wed 04:29:35 PM 42.4830 -103.2200 83° East 499 574 37,000  Level FlightAware
Wed 04:30:09 PM 42.4900 -103.1300 84° East 499 574 37,000  Level FlightAware
Wed 04:30:45 PM 42.4970 -103.0340 84° East 499 574 37,000  Level FlightAware
Wed 04:32:04 PM 42.4967 -102.5767 84° East 495 570 37,000  Level Denver Center
Wed 04:33:06 PM 42.5081 -102.3686 86° East 497 572 37,000  Level Denver Center
Wed 04:34:08 PM 42.5167 -102.1614 87° East 496 571 37,000  Level Denver Center
Wed 04:35:22 PM 42.5261 -101.9817 86° East 499 574 37,000  Level Denver Center
Wed 04:36:25 PM 42.5339 -101.7397 87° East 500 575 37,000  Level Denver Center
Wed 04:37:27 PM 42.5431 -101.5303 87° East 499 574 37,000  Level Denver Center
Wed 04:38:41 PM 42.5519 -101.3486 86° East 503 579 37,000  Level Denver Center
Wed 04:39:43 PM 42.5600 -101.1086 87° East 500 575 37,000  Level Denver Center
Wed 04:40:45 PM 42.5667 -100.9328 87° East 491 565 37,000  Level Denver Center
Wed 04:41:47 PM 42.5744 -100.7206 87° East 500 575 37,000  Level Denver Center
Wed 04:42:49 PM 42.5806 -100.5408 87° East 501 577 37,000  Level Denver Center
Wed 04:43:51 PM 42.5861 -100.3292 88° East 503 579 37,000  Level Denver Center
Wed 04:44:54 PM 42.5908 -100.1486 88° East 503 579 37,000  Level Denver Center
Wed 04:45:56 PM 42.5975 -99.9464 87° East 498 573 37,000  Level Denver Center
Wed 04:46:58 PM 42.6033 -99.7586 88° East 498 573 37,000  Level Denver Center
Wed 04:48:00 PM 42.6075 -99.5717 88° East 496 571 37,000  Level Denver Center
Wed 04:48:30 PM 42.6086 -99.4986 89° East 497 572 37,000  Level Minneapolis Center
Wed 04:49:32 PM 42.6133 -99.2708 88° East 500 575 37,000  Level Minneapolis Center
Wed 04:50:04 PM 42.6153 -99.1931 88° East 499 574 37,000  Level Denver Center
Wed 04:50:34 PM 42.6183 -99.0819 88° East 501 577 37,000  Level Minneapolis Center
Wed 04:51:36 PM 42.6217 -98.8936 89° East 499 574 37,000  Level Minneapolis Center
Wed 04:52:38 PM 42.6253 -98.7067 88° East 496 571 37,000  Level Minneapolis Center
Wed 04:58:23 PM 42.6370 -97.6070 88° East 499 574 37,000  Level FlightAware
Wed 04:59:03 PM 42.6380 -97.4810 89° East 498 573 37,000  Level FlightAware
Wed 04:59:33 PM 42.6380 -97.3850 90° East 498 573 37,000  Level FlightAware
Wed 05:00:08 PM 42.6390 -97.2960 89° East 498 573 37,000  Level FlightAware
Wed 05:00:47 PM 42.6390 -97.1520 90° East 498 573 37,000  Level FlightAware
Wed 05:01:20 PM 42.6390 -97.0510 90° East 498 573 37,000  Level FlightAware
Wed 05:02:06 PM 42.6400 -96.9210 89° East 498 573 37,000  Level FlightAware
Wed 05:02:34 PM 42.6400 -96.8190 90° East 499 574 37,000  Level FlightAware
Wed 05:03:13 PM 42.6390 -96.6960 91° East 500 575 37,000  Level FlightAware
Wed 05:03:52 PM 42.6390 -96.5880 90° East 500 575 37,000  Level FlightAware
Wed 05:04:24 PM 42.6390 -96.4780 90° East 500 575 37,000  Level FlightAware
Wed 05:05:00 PM 42.6390 -96.3650 90° East 501 577 37,000  Level FlightAware
Wed 05:05:42 PM 42.6380 -96.2470 91° East 501 577 37,000  Level FlightAware
Wed 05:06:18 PM 42.6370 -96.1180 91° East 501 577 37,000  Level FlightAware
Wed 05:06:52 PM 42.6370 -96.0230 90° East 501 577 37,000  Level FlightAware
Wed 05:07:28 PM 42.6370 -95.9260 90° East 501 577 37,000  Level FlightAware
Wed 05:08:02 PM 42.6350 -95.7930 91° East 501 577 37,000  Level FlightAware
Wed 05:08:43 PM 42.6340 -95.6650 91° East 502 578 37,000  Level FlightAware
Wed 05:09:18 PM 42.6320 -95.5540 91° East 503 579 37,000  Level FlightAware
Wed 05:09:52 PM 42.6310 -95.4480 91° East 503 579 37,000  Level FlightAware
Wed 05:10:28 PM 42.6300 -95.3320 91° East 504 580 37,000  Level FlightAware
Wed 05:11:01 PM 42.6280 -95.2270 91° East 504 580 37,000  Level FlightAware
Wed 05:11:37 PM 42.6260 -95.1130 91° East 505 581 37,000  Level FlightAware
Wed 05:12:13 PM 42.6250 -94.9990 91° East 506 582 37,000  Level FlightAware
Wed 05:12:48 PM 42.6230 -94.8920 91° East 506 582 37,000  Level FlightAware
Wed 05:13:22 PM 42.6210 -94.7830 91° East 506 582 37,000  Level FlightAware
Wed 05:13:58 PM 42.6190 -94.6690 91° East 506 582 37,000  Level FlightAware
Wed 05:14:34 PM 42.6170 -94.5540 91° East 506 582 37,000  Level FlightAware
Wed 05:15:08 PM 42.6150 -94.4490 91° East 507 583 37,000  Level FlightAware
Wed 05:15:43 PM 42.6120 -94.3350 92° East 507 583 37,000  Level FlightAware
Wed 05:16:13 PM 42.6110 -94.2400 91° East 506 582 37,000  Level FlightAware
Wed 05:16:54 PM 42.6120 -94.1120 89° East 505 581 37,000  Level FlightAware
Wed 05:17:26 PM 42.6140 -94.0110 88° East 506 582 37,000  Level FlightAware
Wed 05:18:02 PM 42.6150 -93.8970 89° East 506 582 37,000  Level FlightAware
Wed 05:18:36 PM 42.6160 -93.7880 89° East 507 583 37,000  Level FlightAware
Wed 05:19:13 PM 42.6160 -93.6740 90° East 508 585 37,000  Level FlightAware
Wed 05:19:48 PM 42.6160 -93.5600 90° East 508 585 37,000  Level FlightAware
Wed 05:20:22 PM 42.6160 -93.4500 90° East 508 585 37,000  Level FlightAware
Wed 05:20:54 PM 42.6170 -93.3510 89° East 507 583 37,000  Level FlightAware
Wed 05:21:44 PM 42.6170 -93.2000 90° East 506 582 37,000  Level FlightAware
Wed 05:22:21 PM 42.6170 -93.0780 90° East 505 581 37,000  Level FlightAware
Wed 05:22:57 PM 42.6170 -92.9620 90° East 504 580 37,000  Level FlightAware
Wed 05:23:33 PM 42.6160 -92.8490 91° East 504 580 37,000  Level FlightAware
Wed 05:24:07 PM 42.6160 -92.7440 90° East 505 581 37,000  Level FlightAware
Wed 05:24:39 PM 42.6160 -92.6420 90° East 505 581 37,000  Level FlightAware
Wed 05:25:19 PM 42.6150 -92.5110 91° East 504 580 37,000  Level FlightAware
Wed 05:25:51 PM 42.6140 -92.4090 91° East 504 580 37,000  Level FlightAware
Wed 05:26:27 PM 42.6130 -92.3000 91° East 505 581 37,000  Level FlightAware
Wed 05:27:04 PM 42.6120 -92.1840 91° East 509 586 37,000  Level FlightAware
Wed 05:27:36 PM 42.6120 -92.0830 90° East 512 589 37,000  Level FlightAware
Wed 05:28:11 PM 42.6100 -91.9680 91° East 514 592 37,000  Level FlightAware
Wed 05:28:47 PM 42.6090 -91.8510 91° East 513 590 37,000  Level FlightAware
Wed 05:29:20 PM 42.6080 -91.7500 91° East 512 589 37,000  Level FlightAware
Wed 05:29:54 PM 42.6060 -91.6330 91° East 512 589 37,000  Level FlightAware
Wed 05:30:32 PM 42.6050 -91.5130 91° East 514 592 37,000  Level FlightAware
Wed 05:31:08 PM 42.6030 -91.3960 91° East 516 594 37,000  Level FlightAware
Wed 05:31:40 PM 42.6010 -91.2920 91° East 517 595 37,000  Level FlightAware
Wed 05:32:18 PM 42.5990 -91.1710 91° East 517 595 37,000  Level FlightAware
Wed 05:32:52 PM 42.5970 -91.0610 91° East 517 595 37,000  Level FlightAware
Wed 05:33:29 PM 42.5950 -90.9410 91° East 518 596 37,000  Level FlightAware
Wed 05:34:01 PM 42.5930 -90.8370 91° East 518 596 37,000 627 Level FlightAware
Wed 05:34:36 PM 42.5910 -90.7230 91° East 515 593 37,700 971 Climbing FlightAware
Wed 05:35:09 PM 42.5880 -90.6180 92° East 516 594 38,100 845 Climbing FlightAware
Wed 05:35:47 PM 42.5860 -90.4950 91° East 516 594 38,700 740 Climbing FlightAware
Wed 05:36:22 PM 42.5830 -90.3800 92° East 517 595 39,000 250 Climbing FlightAware
Wed 05:36:59 PM 42.5800 -90.2650 92° East 516 594 39,000  Level FlightAware
Wed 05:37:32 PM 42.5770 -90.1550 92° East 517 595 39,000  Level FlightAware
Wed 05:38:08 PM 42.5740 -90.0380 92° East 518 596 39,000  Level FlightAware
Wed 05:38:43 PM 42.5710 -89.9250 92° East 520 598 39,000  Level FlightAware
Wed 05:39:14 PM 42.5680 -89.8240 92° East 520 598 39,000  Level FlightAware
Wed 05:39:52 PM 42.5640 -89.7000 92° East 521 600 39,000  Level FlightAware
Wed 05:40:27 PM 42.5610 -89.5870 92° East 522 601 39,000  Level FlightAware
Wed 05:41:04 PM 42.5570 -89.4670 93° East 523 602 39,000  Level FlightAware
Wed 05:41:36 PM 42.5530 -89.3610 93° East 524 603 39,000  Level FlightAware
Wed 05:42:11 PM 42.5500 -89.2470 92° East 525 604 39,000  Level FlightAware
Wed 05:42:48 PM 42.5450 -89.1240 93° East 525 604 39,000  Level FlightAware
Wed 05:43:21 PM 42.5410 -89.0170 93° East 525 604 39,000  Level FlightAware
Wed 05:43:57 PM 42.5370 -88.9000 93° East 526 605 39,000  Level FlightAware
Wed 05:44:34 PM 42.5320 -88.7770 93° East 526 605 39,000  Level FlightAware
Wed 05:45:07 PM 42.5280 -88.6700 93° East 527 606 39,000  Level FlightAware
Wed 05:45:43 PM 42.5230 -88.5480 93° East 527 606 39,000  Level FlightAware
Wed 05:46:18 PM 42.5190 -88.4360 93° East 526 605 39,000  Level FlightAware
Wed 05:46:50 PM 42.5140 -88.3320 94° East 525 604 39,000  Level FlightAware
Wed 05:47:28 PM 42.5090 -88.2070 93° East 525 604 39,000  Level FlightAware
Wed 05:48:02 PM 42.5040 -88.0910 93° East 525 604 39,000  Level FlightAware
Wed 05:48:36 PM 42.5010 -87.9820 92° East 524 603 39,000  Level FlightAware
Wed 05:49:12 PM 42.5000 -87.8680 91° East 523 602 39,000  Level FlightAware
Wed 05:49:46 PM 42.5000 -87.7540 90° East 522 601 39,000  Level FlightAware
Wed 05:50:21 PM 42.4990 -87.6380 91° East 522 601 39,000  Level FlightAware
Wed 05:50:57 PM 42.4990 -87.5230 90° East 520 598 39,000  Level FlightAware
Wed 05:51:33 PM 42.4990 -87.4060 90° East 519 597 39,000  Level FlightAware
Wed 05:52:06 PM 42.4980 -87.2990 91° East 519 597 39,000  Level FlightAware
Wed 05:52:42 PM 42.4970 -87.1830 91° East 519 597 39,000  Level FlightAware
Wed 05:53:13 PM 42.4970 -87.0820 90° East 520 598 39,000  Level FlightAware
Wed 05:53:51 PM 42.4960 -86.9750 91° East 520 598 39,000  Level FlightAware
Wed 05:54:25 PM 42.4950 -86.8540 91° East 520 598 39,000  Level FlightAware
Wed 05:55:03 PM 42.4930 -86.7310 91° East 518 596 39,000  Level FlightAware
Wed 05:55:35 PM 42.4920 -86.6230 91° East 516 594 39,000  Level FlightAware
Wed 05:56:13 PM 42.4910 -86.5100 91° East 515 593 39,000  Level FlightAware
Wed 05:56:49 PM 42.4890 -86.3860 91° East 515 593 39,000  Level FlightAware
Wed 05:57:22 PM 42.4880 -86.2800 91° East 514 592 39,000  Level FlightAware
Wed 05:57:56 PM 42.4860 -86.1700 91° East 513 590 39,000  Level FlightAware
Wed 05:58:33 PM 42.4840 -86.0520 91° East 513 590 39,000  Level FlightAware
Wed 05:59:07 PM 42.4820 -85.9460 91° East 513 590 39,000  Level FlightAware
Wed 05:59:44 PM 42.4800 -85.8210 91° East 512 589 39,000  Level FlightAware
Wed 06:00:16 PM 42.4780 -85.7190 91° East 512 589 39,000  Level FlightAware
Wed 06:00:52 PM 42.4760 -85.6030 91° East 512 589 39,000  Level FlightAware
Wed 06:01:28 PM 42.4730 -85.4910 92° East 512 589 39,000  Level FlightAware
Wed 06:02:00 PM 42.4710 -85.3860 91° East 513 590 39,000  Level FlightAware
Wed 06:02:37 PM 42.4680 -85.2700 92° East 514 592 39,000  Level FlightAware
Wed 06:03:13 PM 42.4660 -85.1550 91° East 515 593 39,000  Level FlightAware
Wed 06:03:54 PM 42.4620 -85.0230 92° East 516 594 39,000  Level FlightAware
Wed 06:04:30 PM 42.4590 -84.9090 92° East 515 593 39,000  Level FlightAware
Wed 06:05:05 PM 42.4560 -84.8010 92° East 515 593 39,000  Level FlightAware
Wed 06:05:37 PM 42.4530 -84.6970 92° East 516 594 39,000  Level FlightAware
Wed 06:06:13 PM 42.4500 -84.5760 92° East 516 594 39,000  Level FlightAware
Wed 06:06:50 PM 42.4460 -84.4580 93° East 516 594 39,000  Level FlightAware
Wed 06:07:24 PM 42.4430 -84.3440 92° East 516 594 39,000  Level FlightAware
Wed 06:08:00 PM 42.4390 -84.2300 93° East 515 593 39,000  Level FlightAware
Wed 06:08:32 PM 42.4360 -84.1300 92° East 515 593 39,000  Level FlightAware
Wed 06:09:08 PM 42.4320 -84.0130 93° East 514 592 39,000  Level FlightAware
Wed 06:09:42 PM 42.4280 -83.9020 93° East 513 590 39,000  Level FlightAware
Wed 06:10:19 PM 42.4240 -83.7860 93° East 513 590 39,000  Level FlightAware
Wed 06:10:54 PM 42.4200 -83.6720 93° East 514 592 39,000  Level FlightAware
Wed 06:11:29 PM 42.4150 -83.5600 93° East 514 592 39,000  Level FlightAware
Wed 06:12:05 PM 42.4110 -83.4440 93° East 513 590 39,000  Level FlightAware
Wed 06:12:41 PM 42.4060 -83.3270 93° East 513 590 39,000  Level FlightAware
Wed 06:13:13 PM 42.4020 -83.2280 93° East 513 590 39,000  Level FlightAware
Wed 06:13:49 PM 42.3970 -83.1160 93° East 513 590 39,000  Level FlightAware
Wed 06:14:27 PM 42.3920 -82.9920 93° East 512 589 39,000  Level FlightAware
Wed 06:14:59 PM 42.3870 -82.8870 94° East 511 588 39,000  Level FlightAware
Wed 06:15:35 PM 42.3820 -82.7750 93° East 510 587 39,000  Level FlightAware
Wed 06:16:11 PM 42.3770 -82.6600 93° East 510 587 39,000  Level FlightAware
Wed 06:16:43 PM 42.3730 -82.5630 93° East 510 587 39,000  Level FlightAware
Wed 06:17:19 PM 42.3690 -82.4450 93° East 510 587 39,000  Level FlightAware
Wed 06:17:55 PM 42.3640 -82.3280 93° East 510 587 39,000  Level FlightAware
Wed 06:18:33 PM 42.3590 -82.2060 93° East 509 586 39,000  Level FlightAware
Wed 06:18:59 PM 42.3560 -82.1300 93° East 508 585 39,000  Level FlightAware
Wed 06:19:37 PM 42.3510 -82.0170 93° East 508 585 39,000  Level FlightAware
Wed 06:20:14 PM 42.3470 -81.9100 93° East 507 583 39,000  Level FlightAware
Wed 06:20:49 PM 42.3420 -81.8020 94° East 508 585 39,000  Level FlightAware
Wed 06:21:27 PM 42.3360 -81.6790 94° East 508 585 39,000  Level FlightAware
Wed 06:21:56 PM 42.3320 -81.5880 93° East 506 582 39,000  Level FlightAware
Wed 06:22:34 PM 42.3260 -81.4680 94° East 506 582 39,000  Level FlightAware
Wed 06:23:10 PM 42.3200 -81.3450 94° East 505 581 39,000  Level FlightAware
Wed 06:23:43 PM 42.3150 -81.2550 94° East 505 581 39,000  Level FlightAware
Wed 06:24:21 PM 42.3090 -81.1330 94° East 504 580 39,000  Level FlightAware
Wed 06:24:53 PM 42.3040 -81.0290 94° East 505 581 39,000  Level FlightAware
Wed 06:25:30 PM 42.2980 -80.9080 94° East 505 581 39,000  Level FlightAware
Wed 06:26:10 PM 42.2900 -80.7720 95° East 506 582 39,000  Level FlightAware
Wed 06:26:45 PM 42.2850 -80.6730 94° East 506 582 39,000  Level FlightAware
Wed 06:27:25 PM 42.2770 -80.5390 95° East 506 582 39,000  Level FlightAware
Wed 06:27:55 PM 42.2720 -80.4420 94° East 506 582 39,000  Level FlightAware
Wed 06:28:30 PM 42.2660 -80.3350 94° East 506 582 39,000  Level FlightAware
Wed 06:29:05 PM 42.2590 -80.2240 95° East 506 582 39,000  Level FlightAware
Wed 06:29:40 PM 42.2530 -80.1160 94° East 507 583 39,000  Level FlightAware
Wed 06:30:15 PM 42.2470 -80.0120 94° East 507 583 39,000  Level FlightAware
Wed 06:30:50 PM 42.2390 -79.8960 95° East 508 585 39,000  Level FlightAware
Wed 06:31:25 PM 42.2320 -79.7820 95° East 507 583 39,000  Level FlightAware
Wed 06:32:00 PM 42.2250 -79.6740 95° East 506 582 39,000  Level FlightAware
Wed 06:32:40 PM 42.2170 -79.5500 95° East 506 582 39,000  Level FlightAware
Wed 06:33:10 PM 42.2110 -79.4530 95° East 509 586 39,000  Level FlightAware
Wed 06:33:45 PM 42.2050 -79.3550 95° East 509 586 39,000  Level FlightAware
Wed 06:34:20 PM 42.1960 -79.2340 96° East 510 587 39,000  Level FlightAware
Wed 06:35:00 PM 42.1820 -79.1070 98° East 514 592 39,000  Level FlightAware
Wed 06:35:40 PM 42.1560 -78.9880 106° East 516 594 39,000  Level FlightAware
Wed 06:36:16 PM 42.1290 -78.8780 108° East 517 595 39,000  Level FlightAware
Wed 06:36:50 PM 42.1010 -78.7700 109° East 518 596 39,000  Level FlightAware
Wed 06:37:30 PM 42.0710 -78.6500 109° East 520 598 39,000  Level FlightAware
Wed 06:38:05 PM 42.0430 -78.5420 109° East 521 600 39,000  Level FlightAware
Wed 06:38:41 PM 42.0150 -78.4330 109° East 518 596 39,000  Level FlightAware
Wed 06:39:17 PM 41.9860 -78.3180 109° East 518 596 39,000  Level FlightAware
Wed 06:39:49 PM 41.9610 -78.2210 109° East 514 592 39,000  Level FlightAware
Wed 06:40:26 PM 41.9330 -78.1130 109° East 513 590 39,000  Level FlightAware
Wed 06:41:03 PM 41.9030 -77.9970 109° East 512 589 39,000  Level FlightAware
Wed 06:41:39 PM 41.8750 -77.8920 110° East 510 587 39,000  Level FlightAware
Wed 06:42:11 PM 41.8510 -77.7970 109° East 509 586 39,000  Level FlightAware
Wed 06:42:47 PM 41.8220 -77.6900 110° East 511 588 39,000  Level FlightAware
Wed 06:43:22 PM 41.7950 -77.5860 109° East 513 590 39,000  Level FlightAware
Wed 06:43:57 PM 41.7670 -77.4800 109° East 515 593 39,000  Level FlightAware
Wed 06:44:31 PM 41.7390 -77.3770 110° East 517 595 39,000  Level FlightAware
Wed 06:45:07 PM 41.7100 -77.2690 110° East 518 596 39,000  Level FlightAware
Wed 06:45:45 PM 41.6800 -77.1570 110° East 516 594 39,000  Level FlightAware
Wed 06:46:17 PM 41.6540 -77.0590 110° East 515 593 39,000  Level FlightAware
Wed 06:46:53 PM 41.6240 -76.9500 110° East 515 593 39,000  Level FlightAware
Wed 06:47:25 PM 41.5990 -76.8580 110° East 514 592 39,000  Level FlightAware
Wed 06:48:03 PM 41.5690 -76.7490 110° East 514 592 39,000  Level FlightAware
Wed 06:48:37 PM 41.5400 -76.6400 110° East 514 592 39,000  Level FlightAware
Wed 06:49:11 PM 41.5120 -76.5410 111° Southeast 513 590 39,000  Level FlightAware
Wed 06:49:47 PM 41.4830 -76.4360 110° East 512 589 39,000 -254 Level FlightAware
Wed 06:50:22 PM 41.4540 -76.3320 110° East 510 587 38,700 -701 Descending FlightAware
Wed 06:51:04 PM 41.4210 -76.2120 110° East 504 580 38,100 -1,658 Descending FlightAware
Wed 06:51:38 PM 41.3930 -76.1130 111° Southeast 505 581 36,600 -2,789 Descending FlightAware
Wed 06:52:15 PM 41.3630 -76.0060 110° East 507 583 34,800 -3,088 Descending FlightAware
Wed 06:52:46 PM 41.3360 -75.9130 111° Southeast 507 583 33,100 -3,403 Descending FlightAware
Wed 06:53:22 PM 41.3070 -75.8090 110° East 508 585 31,000 -3,333 Descending FlightAware
Wed 06:53:58 PM 41.2770 -75.7070 111° Southeast 507 583 29,100 -2,955 Descending FlightAware
Wed 06:54:29 PM 41.2500 -75.6200 112° Southeast 495 570 27,700 -2,704 Descending FlightAware
Wed 06:55:09 PM 41.2120 -75.5060 114° Southeast 483 556 25,900 -2,712 Descending FlightAware
Wed 06:55:42 PM 41.1820 -75.4170 114° Southeast 474 545 24,400 -2,382 Descending FlightAware
Wed 06:56:17 PM 41.1510 -75.3240 114° Southeast 464 534 23,200 -1,371 Descending FlightAware
Wed 06:56:52 PM 41.1200 -75.2340 115° Southeast 463 533 22,800 -1,352 Descending FlightAware
Wed 06:57:28 PM 41.0890 -75.1420 114° Southeast 475 547 21,600 -1,971 Descending FlightAware
Wed 06:58:02 PM 41.0590 -75.0530 114° Southeast 471 542 20,500 -1,315 Descending FlightAware
Wed 06:58:41 PM 41.0240 -74.9500 114° Southeast 468 539 20,000 -423 Descending FlightAware
Wed 06:59:13 PM 40.9980 -74.8620 111° Southeast 471 542 20,000 -176 Level FlightAware
Wed 06:59:49 PM 40.9840 -74.7610 100° East 465 535 19,800 -312 Descending FlightAware
Wed 07:00:30 PM 40.9713 -74.6454 98° East 458 527 19,600 -420 Descending FlightAware
Wed 07:01:29 PM 40.9540 -74.4850 98° East 451 519 19,100 -360 Descending FlightAware
Wed 07:02:10 PM 40.9420 -74.3750 98° East 431 496 19,000 -79 Descending FlightAware
Wed 07:02:45 PM 40.9322 -74.2868 98° East 405 466 19,000  Level FlightAware
Wed 07:03:18 PM 40.9230 -74.2100 99° East 366 421 19,000  Level FlightAware
Wed 07:03:34 PM 40.9160 -74.1800 107° East 357 411 19,000  Level FlightAware
Wed 07:03:41 PM 40.9094 -74.1634 118° Southeast 354 407 19,000  Level FlightAware
Wed 07:03:46 PM 40.9048 -74.1550 126° Southeast 352 405 19,000  Level FlightAware
Wed 07:03:49 PM 40.9016 -74.1502 131° Southeast 351 404 19,000  Level FlightAware
Wed 07:03:55 PM 40.8945 -74.1411 136° Southeast 349 402 19,000  Level FlightAware
Wed 07:03:59 PM 40.8893 -74.1356 141° Southeast 348 400 19,000 -632 Level FlightAware
Wed 07:04:14 PM 40.8700 -74.1201 149° Southeast 345 397 18,800 -1,067 Descending FlightAware
Wed 07:04:44 PM 40.8274 -74.0905 152° Southeast 339 390 18,200 -1,574 Descending FlightAware
Wed 07:05:15 PM 40.7846 -74.0607 152° Southeast 341 392 17,200 -1,800 Descending FlightAware
Wed 07:05:54 PM 40.7301 -74.0222 152° Southeast 343 395 16,100 -1,479 Descending FlightAware
Wed 07:06:28 PM 40.6835 -73.9892 152° Southeast 340 391 15,400 -1,378 Descending FlightAware
Wed 07:07:08 PM 40.6290 -73.9510 152° Southeast 325 374 14,400 -1,403 Descending FlightAware
Wed 07:07:45 PM 40.5820 -73.9190 153° Southeast 318 366 13,600 -1,233 Descending FlightAware
Wed 07:08:21 PM 40.5320 -73.8880 155° Southeast 322 371 12,900 -1,324 Descending FlightAware
Wed 07:08:53 PM 40.4880 -73.8700 163° South 318 366 12,100 -1,412 Descending FlightAware
Wed 07:09:29 PM 40.4380 -73.8480 161° South 318 366 11,300 -1,417 Descending FlightAware
Wed 07:10:05 PM 40.3950 -73.8090 145° Southeast 312 359 10,400 -1,393 Descending FlightAware
Wed 07:10:25 PM 40.3730 -73.7830 138° Southeast 313 360 10,000 -1,154 Descending FlightAware
Wed 07:10:31 PM 40.3690 -73.7740 120° Southeast 312 359 9,900 -1,412 Descending FlightAware
Wed 07:10:42 PM 40.3640 -73.7540 108° East 308 354 9,600 -667 Descending FlightAware
Wed 07:11:16 PM 40.3610 -73.6980 94° East 306 352 9,400 -1,317 Descending FlightAware
Wed 07:11:23 PM 40.3750 -73.6850 35° Northeast 300 345 8,700 -2,667 Descending FlightAware
Wed 07:11:43 PM 40.3860 -73.6470 69° East 298 343 8,200 -1,200 Descending FlightAware
Wed 07:12:03 PM 40.3960 -73.6140 68° East 295 339 7,900 -857 Descending FlightAware
Wed 07:12:18 PM 40.4070 -73.5930 55° Northeast 288 331 7,700 -857 Descending FlightAware
Wed 07:12:24 PM 40.4130 -73.5870 37° Northeast 286 329 7,600 -1,071 Descending FlightAware
Wed 07:12:46 PM 40.4380 -73.5670 31° Northeast 279 321 7,200 -1,059 Descending FlightAware
Wed 07:12:58 PM 40.4520 -73.5570 29° Northeast 278 320 7,000 -364 Descending FlightAware
Wed 07:13:19 PM 40.4740 -73.5400 30° Northeast 277 319 7,000  Level FlightAware
Wed 07:13:44 PM 40.5010 -73.5210 28° Northeast 277 319 7,000 -419 Level FlightAware
Wed 07:14:02 PM 40.5220 -73.5060 28° Northeast 275 316 6,700 -1,050 Descending FlightAware
Wed 07:14:24 PM 40.5480 -73.4870 29° Northeast 272 313 6,300 -1,286 Descending FlightAware
Wed 07:14:44 PM 40.5700 -73.4720 27° Northeast 271 312 5,800 -1,371 Descending FlightAware
Wed 07:14:59 PM 40.5870 -73.4600 28° Northeast 270 311 5,500 -1,333 Descending FlightAware
Wed 07:15:20 PM 40.6090 -73.4450 27° Northeast 270 311 5,000 -878 Descending FlightAware
Wed 07:15:40 PM 40.6300 -73.4300 28° Northeast 257 296 4,900  Descending FlightAware
Wed 07:15:59 PM 40.6500 -73.4160 28° Northeast 238 274 5,000 136 Climbing FlightAware
Wed 07:16:24 PM 40.6720 -73.3990 30° Northeast 222 255 5,000  Level FlightAware
Wed 07:16:36 PM 40.6840 -73.3910 27° Northeast 218 251 5,000 -286 Level FlightAware
Wed 07:16:45 PM 40.6930 -73.3890 10° North 213 245 4,900 -600 Descending FlightAware
Wed 07:16:56 PM 40.7020 -73.3890 360° North 211 243 4,800 -947 Descending FlightAware
Wed 07:17:04 PM 40.7110 -73.3890 360° North 212 244 4,600 -1,286 Descending FlightAware
Wed 07:17:24 PM 40.7310 -73.3890 360° North 216 249 4,200 -857 Descending FlightAware
Wed 07:17:46 PM 40.7530 -73.3890 360° North 220 253 4,000 -286 Descending FlightAware
Wed 07:18:06 PM 40.7700 -73.3890 360° North 222 255 4,000  Level FlightAware
Wed 07:18:28 PM 40.7950 -73.3890 360° North 223 257 4,000 -162 Level FlightAware
Wed 07:18:43 PM 40.8090 -73.3930 348° North 218 251 3,900 -300 Descending FlightAware
Wed 07:18:48 PM 40.8130 -73.3960 330° Northwest 213 245 3,900 -400 Level FlightAware
Wed 07:18:58 PM 40.8200 -73.4060 313° West 210 242 3,800 -960 Descending FlightAware
Wed 07:19:13 PM 40.8260 -73.4200 300° West 207 238 3,500 -1,000 Descending FlightAware
Wed 07:19:28 PM 40.8330 -73.4390 296° West 206 237 3,300 -900 Descending FlightAware
Wed 07:19:53 PM 40.8440 -73.4690 296° West 205 236 2,900 -818 Descending FlightAware
Wed 07:20:12 PM 40.8510 -73.4890 295° West 203 234 2,700 -818 Descending FlightAware
Wed 07:20:37 PM 40.8610 -73.5140 298° West 203 234 2,300 -500 Descending FlightAware
Wed 07:21:12 PM 40.8760 -73.5500 299° West 203 234 2,200 -462 Descending FlightAware
Wed 07:21:16 PM 40.8630 -73.5610 213° Southwest 181 208 2,000 -444 Descending FlightAware
Wed 07:21:39 PM 40.8550 -73.5820 243° Southwest 171 197 2,000  Level FlightAware
Wed 07:22:04 PM 40.8470 -73.6010 241° Southwest 171 197 2,000  Level FlightAware
Wed 07:22:13 PM 40.8630 -73.5600 63° Northeast 176 203 2,000  Level FlightAware
Wed 07:22:40 PM 40.8490 -73.5770 223° Southwest 176 203 2,000  Level FlightAware
Wed 07:22:54 PM 40.8060 -73.6290 222° Southwest 177 204 2,000  Level FlightAware
Wed 07:23:08 PM 40.7970 -73.6360 210° Southwest 177 204 2,000  Level FlightAware
Wed 07:23:30 PM 40.7800 -73.6490 210° Southwest 179 206 2,000  Level FlightAware
Wed 07:23:52 PM 40.7640 -73.6620 212° Southwest 181 208 2,000  Level FlightAware
Wed 07:24:05 PM 40.7540 -73.6690 208° Southwest 181 208 2,000  Level FlightAware
Wed 07:24:25 PM 40.7400 -73.6810 213° Southwest 179 206 2,000 -409 Level FlightAware
Wed 07:24:49 PM 40.7240 -73.6940 212° Southwest 181 208 1,700 -714 Descending FlightAware
Wed 07:25:07 PM 40.7110 -73.7040 210° Southwest 165 190 1,500 -769 Descending FlightAware
Wed 07:25:28 PM 40.6980 -73.7130 208° Southwest 145 167 1,200 -811 Descending FlightAware
Wed 07:25:44 PM 40.6890 -73.7210 214° Southwest 132 152 1,000 -667 Descending FlightAware
Wed 07:26:04 PM 40.6790 -73.7290 211° Southwest 132 152 800 -750 Descending FlightAware
Wed 07:26:24 PM 40.6680 -73.7370 209° Southwest 132 152 500 -769 Descending FlightAware
Wed 07:26:43 PM 40.6580 -73.7450 211° Southwest 132 152 300 -649 Descending FlightAware
Wed 07:27:01 PM 40.6490 -73.7520 211° Southwest 129 148 100 -667 Descending FlightAware
Wed 07:27:20 PM 40.6400 -73.7590 211° Southwest 129 148 -316 Descending FlightAware

Login

Don't have an account? Register now (free) for customized features, flight alerts, and more!